Gjoa Haven, Canada
Current Conditions -  °F | °C
As of 12:00 PM on Thursday 27 Nov 2014 (Local Time) from CYHK Reporting Station
Blowing Snow Blowing Snow  
Wind Chill: -54°   Ceiling: Unl
Heat Index: -26°   Visibility: 15mi
Dew Point: -31°   Wind: 17mph
Humidity: 76%   Direction: 330°NNW
Pressure: 29.79"   Gusts: NA
Location:  68.63°N, 95.92°W
Report Text: CYHK 271800Z 33015KT 15SM IC DRSN FEW250 M32/M35 A2979 RMK CI1 SLP097
Loading
Personal Weather Stations






























Interactive Weather Map New forecast layout! Learn more

10-Day Weather Forecast

Advertisements
Track Severe Weather on mobile